sensor_id;sensor_type;location;lat;lon;timestamp;P1;durP1;ratioP1;P2;durP2;ratioP2
44762;SDS011;30483;49.576;6.036;2024-01-11T04:05:08;9.18;;;6.38;;
44762;SDS011;30483;49.576;6.036;2024-01-11T04:07:34;9.95;;;7.03;;
44762;SDS011;30483;49.576;6.036;2024-01-11T04:10:00;9.75;;;6.85;;
44762;SDS011;30483;49.576;6.036;2024-01-11T04:12:25;9.27;;;6.65;;
44762;SDS011;30483;49.576;6.036;2024-01-11T04:14:51;8.10;;;6.38;;
44762;SDS011;30483;49.576;6.036;2024-01-11T04:17:16;8.23;;;6.43;;
44762;SDS011;30483;49.576;6.036;2024-01-11T04:19:42;8.35;;;6.60;;
44762;SDS011;30483;49.576;6.036;2024-01-11T04:22:07;9.48;;;6.50;;
44762;SDS011;30483;49.576;6.036;2024-01-11T04:24:33;9.07;;;6.72;;
44762;SDS011;30483;49.576;6.036;2024-01-11T04:26:59;9.07;;;6.78;;
44762;SDS011;30483;49.576;6.036;2024-01-11T04:29:24;8.68;;;6.60;;
44762;SDS011;30483;49.576;6.036;2024-01-11T04:31:50;9.02;;;6.85;;
44762;SDS011;30483;49.576;6.036;2024-01-11T04:34:15;8.30;;;6.30;;
44762;SDS011;30483;49.576;6.036;2024-01-11T04:36:41;8.90;;;6.57;;
44762;SDS011;30483;49.576;6.036;2024-01-11T04:39:06;9.68;;;6.88;;
44762;SDS011;30483;49.576;6.036;2024-01-11T04:41:34;8.98;;;6.65;;
44762;SDS011;30483;49.576;6.036;2024-01-11T04:44:01;8.57;;;6.67;;
44762;SDS011;30483;49.576;6.036;2024-01-11T04:46:27;9.23;;;6.53;;
44762;SDS011;30483;49.576;6.036;2024-01-11T04:48:53;9.55;;;6.90;;
44762;SDS011;30483;49.576;6.036;2024-01-11T04:51:19;9.50;;;6.65;;
44762;SDS011;30483;49.576;6.036;2024-01-11T04:53:45;8.45;;;6.32;;
44762;SDS011;30483;49.576;6.036;2024-01-11T04:56:12;8.13;;;6.20;;
44762;SDS011;30483;49.576;6.036;2024-01-11T04:58:41;8.98;;;5.93;;
44762;SDS011;30483;49.576;6.036;2024-01-11T05:01:17;23.80;;;16.73;;
44762;SDS011;30483;49.576;6.036;2024-01-11T05:03:43;24.75;;;16.95;;
44762;SDS011;30483;49.576;6.036;2024-01-11T05:06:16;23.10;;;15.55;;
44762;SDS011;30483;49.576;6.036;2024-01-11T05:08:43;22.45;;;15.32;;
44762;SDS011;30483;49.576;6.036;2024-01-11T05:11:19;19.10;;;14.13;;
44762;SDS011;30483;49.576;6.036;2024-01-11T05:13:46;21.67;;;14.80;;
44762;SDS011;30483;49.576;6.036;2024-01-11T05:16:31;23.63;;;14.55;;
44762;SDS011;30483;49.576;6.036;2024-01-11T05:18:57;18.08;;;13.43;;
44762;SDS011;30483;49.576;6.036;2024-01-11T05:21:23;17.38;;;13.27;;
44762;SDS011;30483;49.576;6.036;2024-01-11T05:23:49;19.27;;;14.25;;
44762;SDS011;30483;49.576;6.036;2024-01-11T05:26:16;18.38;;;13.48;;
44762;SDS011;30483;49.576;6.036;2024-01-11T05:28:42;19.33;;;13.23;;
44762;SDS011;30483;49.576;6.036;2024-01-11T05:31:13;17.85;;;12.90;;
44762;SDS011;30483;49.576;6.036;2024-01-11T05:33:42;17.13;;;12.30;;
44762;SDS011;30483;49.576;6.036;2024-01-11T05:36:08;17.80;;;12.40;;
44762;SDS011;30483;49.576;6.036;2024-01-11T05:38:34;16.85;;;12.30;;
44762;SDS011;30483;49.576;6.036;2024-01-11T05:41:00;17.73;;;12.98;;
44762;SDS011;30483;49.576;6.036;2024-01-11T05:43:26;15.63;;;12.05;;
44762;SDS011;30483;49.576;6.036;2024-01-11T05:45:52;16.60;;;11.60;;
44762;SDS011;30483;49.576;6.036;2024-01-11T05:48:17;17.63;;;11.73;;
44762;SDS011;30483;49.576;6.036;2024-01-11T05:50:43;16.63;;;11.60;;
44762;SDS011;30483;49.576;6.036;2024-01-11T05:53:09;17.00;;;11.88;;
44762;SDS011;30483;49.576;6.036;2024-01-11T05:55:36;16.10;;;11.32;;
44762;SDS011;30483;49.576;6.036;2024-01-11T05:58:01;15.88;;;11.30;;
44762;SDS011;30483;49.576;6.036;2024-01-11T06:00:27;14.20;;;10.38;;
44762;SDS011;30483;49.576;6.036;2024-01-11T06:02:53;16.05;;;11.07;;
44762;SDS011;30483;49.576;6.036;2024-01-11T06:05:18;14.60;;;10.40;;
44762;SDS011;30483;49.576;6.036;2024-01-11T06:07:44;16.67;;;10.93;;
44762;SDS011;30483;49.576;6.036;2024-01-11T06:10:09;14.98;;;10.15;;
44762;SDS011;30483;49.576;6.036;2024-01-11T06:12:35;13.52;;;9.85;;
44762;SDS011;30483;49.576;6.036;2024-01-11T06:15:01;14.70;;;10.10;;
44762;SDS011;30483;49.576;6.036;2024-01-11T06:17:27;13.65;;;10.02;;
44762;SDS011;30483;49.576;6.036;2024-01-11T06:19:53;12.50;;;9.70;;
44762;SDS011;30483;49.576;6.036;2024-01-11T06:22:19;13.65;;;9.77;;
44762;SDS011;30483;49.576;6.036;2024-01-11T06:24:45;15.43;;;9.75;;
44762;SDS011;30483;49.576;6.036;2024-01-11T06:27:11;14.65;;;9.65;;
44762;SDS011;30483;49.576;6.036;2024-01-11T06:29:36;11.50;;;8.70;;
44762;SDS011;30483;49.576;6.036;2024-01-11T06:32:02;22.95;;;14.23;;
44762;SDS011;30483;49.576;6.036;2024-01-11T06:34:27;20.77;;;14.50;;
44762;SDS011;30483;49.576;6.036;2024-01-11T06:36:53;18.20;;;13.05;;
44762;SDS011;30483;49.576;6.036;2024-01-11T06:39:20;17.27;;;12.27;;
44762;SDS011;30483;49.576;6.036;2024-01-11T06:41:45;20.48;;;13.20;;
44762;SDS011;30483;49.576;6.036;2024-01-11T06:44:11;22.02;;;15.00;;
44762;SDS011;30483;49.576;6.036;2024-01-11T06:46:37;24.48;;;17.65;;
44762;SDS011;30483;49.576;6.036;2024-01-11T06:49:06;24.33;;;17.10;;
44762;SDS011;30483;49.576;6.036;2024-01-11T06:51:32;28.63;;;18.42;;
44762;SDS011;30483;49.576;6.036;2024-01-11T06:53:58;25.15;;;17.67;;
44762;SDS011;30483;49.576;6.036;2024-01-11T06:56:26;30.02;;;18.48;;
44762;SDS011;30483;49.576;6.036;2024-01-11T06:58:51;28.73;;;18.63;;
44762;SDS011;30483;49.576;6.036;2024-01-11T07:01:19;27.10;;;18.73;;
44762;SDS011;30483;49.576;6.036;2024-01-11T07:03:45;25.40;;;17.67;;
44762;SDS011;30483;49.576;6.036;2024-01-11T07:06:11;24.85;;;16.67;;
44762;SDS011;30483;49.576;6.036;2024-01-11T07:08:37;25.75;;;16.98;;
44762;SDS011;30483;49.576;6.036;2024-01-11T07:11:03;25.65;;;17.45;;
44762;SDS011;30483;49.576;6.036;2024-01-11T07:13:29;22.90;;;16.55;;
44762;SDS011;30483;49.576;6.036;2024-01-11T07:15:56;21.92;;;15.60;;
44762;SDS011;30483;49.576;6.036;2024-01-11T07:18:22;22.40;;;15.43;;
44762;SDS011;30483;49.576;6.036;2024-01-11T07:20:49;23.17;;;15.85;;
44762;SDS011;30483;49.576;6.036;2024-01-11T07:23:15;22.45;;;15.20;;
44762;SDS011;30483;49.576;6.036;2024-01-11T07:25:41;22.55;;;15.07;;
44762;SDS011;30483;49.576;6.036;2024-01-11T07:28:07;22.85;;;15.50;;
44762;SDS011;30483;49.576;6.036;2024-01-11T07:30:33;22.25;;;15.38;;
44762;SDS011;30483;49.576;6.036;2024-01-11T07:32:59;21.60;;;14.93;;
44762;SDS011;30483;49.576;6.036;2024-01-11T07:35:24;20.40;;;14.13;;
44762;SDS011;30483;49.576;6.036;2024-01-11T07:37:50;20.33;;;14.13;;
44762;SDS011;30483;49.576;6.036;2024-01-11T07:40:16;20.33;;;13.88;;
44762;SDS011;30483;49.576;6.036;2024-01-11T07:42:42;19.67;;;14.10;;
44762;SDS011;30483;49.576;6.036;2024-01-11T07:45:08;20.55;;;13.57;;
44762;SDS011;30483;49.576;6.036;2024-01-11T07:47:39;19.70;;;13.55;;
44762;SDS011;30483;49.576;6.036;2024-01-11T07:50:07;19.35;;;13.65;;
44762;SDS011;30483;49.576;6.036;2024-01-11T07:52:37;18.55;;;12.88;;
44762;SDS011;30483;49.576;6.036;2024-01-11T07:55:03;17.80;;;12.85;;
44762;SDS011;30483;49.576;6.036;2024-01-11T07:57:36;17.27;;;12.93;;
44762;SDS011;30483;49.576;6.036;2024-01-11T08:00:02;17.20;;;12.35;;
44762;SDS011;30483;49.576;6.036;2024-01-11T08:02:29;17.33;;;12.65;;
44762;SDS011;30483;49.576;6.036;2024-01-11T08:04:55;16.95;;;12.43;;
44762;SDS011;30483;49.576;6.036;2024-01-11T08:07:20;18.67;;;12.45;;
44762;SDS011;30483;49.576;6.036;2024-01-11T08:09:47;17.65;;;12.07;;
44762;SDS011;30483;49.576;6.036;2024-01-11T08:12:13;17.85;;;12.48;;
44762;SDS011;30483;49.576;6.036;2024-01-11T08:14:41;15.50;;;11.32;;
44762;SDS011;30483;49.576;6.036;2024-01-11T08:17:07;15.77;;;11.30;;
44762;SDS011;30483;49.576;6.036;2024-01-11T08:19:33;17.27;;;11.95;;
44762;SDS011;30483;49.576;6.036;2024-01-11T08:21:59;15.63;;;11.05;;
44762;SDS011;30483;49.576;6.036;2024-01-11T08:24:25;16.30;;;11.60;;
44762;SDS011;30483;49.576;6.036;2024-01-11T08:26:50;16.63;;;11.63;;
44762;SDS011;30483;49.576;6.036;2024-01-11T08:29:16;15.00;;;11.35;;
44762;SDS011;30483;49.576;6.036;2024-01-11T08:31:44;16.25;;;11.30;;
44762;SDS011;30483;49.576;6.036;2024-01-11T08:34:13;15.30;;;10.80;;
44762;SDS011;30483;49.576;6.036;2024-01-11T08:36:38;14.32;;;10.85;;
44762;SDS011;30483;49.576;6.036;2024-01-11T08:39:04;15.38;;;10.82;;
44762;SDS011;30483;49.576;6.036;2024-01-11T08:41:31;14.30;;;10.48;;
44762;SDS011;30483;49.576;6.036;2024-01-11T08:43:56;14.85;;;11.02;;
44762;SDS011;30483;49.576;6.036;2024-01-11T08:46:25;14.55;;;10.57;;
44762;SDS011;30483;49.576;6.036;2024-01-11T08:48:52;24.27;;;16.05;;
44762;SDS011;30483;49.576;6.036;2024-01-11T08:51:18;23.63;;;15.27;;
44762;SDS011;30483;49.576;6.036;2024-01-11T08:53:44;22.00;;;15.77;;
44762;SDS011;30483;49.576;6.036;2024-01-11T08:56:10;22.35;;;15.23;;
44762;SDS011;30483;49.576;6.036;2024-01-11T08:58:35;21.33;;;14.20;;
44762;SDS011;30483;49.576;6.036;2024-01-11T09:01:01;19.77;;;14.13;;
44762;SDS011;30483;49.576;6.036;2024-01-11T09:03:28;18.65;;;13.57;;
44762;SDS011;30483;49.576;6.036;2024-01-11T09:05:54;19.30;;;13.43;;
44762;SDS011;30483;49.576;6.036;2024-01-11T09:08:22;19.35;;;13.57;;
44762;SDS011;30483;49.576;6.036;2024-01-11T09:10:48;18.08;;;13.20;;
44762;SDS011;30483;49.576;6.036;2024-01-11T09:13:13;17.15;;;12.30;;
44762;SDS011;30483;49.576;6.036;2024-01-11T09:15:40;17.40;;;12.43;;
44762;SDS011;30483;49.576;6.036;2024-01-11T09:18:06;20.35;;;13.98;;
44762;SDS011;30483;49.576;6.036;2024-01-11T09:20:32;19.05;;;13.07;;
44762;SDS011;30483;49.576;6.036;2024-01-11T09:22:58;19.17;;;12.05;;
44762;SDS011;30483;49.576;6.036;2024-01-11T09:25:24;19.15;;;12.75;;
44762;SDS011;30483;49.576;6.036;2024-01-11T09:27:50;17.48;;;12.10;;
44762;SDS011;30483;49.576;6.036;2024-01-11T09:30:16;18.65;;;11.82;;
44762;SDS011;30483;49.576;6.036;2024-01-11T09:32:41;15.63;;;11.38;;
44762;SDS011;30483;49.576;6.036;2024-01-11T09:35:07;15.23;;;10.85;;
44762;SDS011;30483;49.576;6.036;2024-01-11T09:37:33;18.05;;;11.55;;
44762;SDS011;30483;49.576;6.036;2024-01-11T09:39:59;15.80;;;11.23;;
44762;SDS011;30483;49.576;6.036;2024-01-11T09:42:25;16.52;;;11.85;;
44762;SDS011;30483;49.576;6.036;2024-01-11T09:44:52;15.35;;;10.50;;
44762;SDS011;30483;49.576;6.036;2024-01-11T09:47:19;15.85;;;10.93;;
44762;SDS011;30483;49.576;6.036;2024-01-11T09:49:47;14.93;;;10.68;;
44762;SDS011;30483;49.576;6.036;2024-01-11T09:52:19;16.67;;;11.07;;
44762;SDS011;30483;49.576;6.036;2024-01-11T09:54:47;15.07;;;10.57;;
44762;SDS011;30483;49.576;6.036;2024-01-11T09:57:13;15.07;;;10.93;;
44762;SDS011;30483;49.576;6.036;2024-01-11T09:59:46;14.32;;;9.90;;
44762;SDS011;30483;49.576;6.036;2024-01-11T10:02:13;14.85;;;10.15;;
44762;SDS011;30483;49.576;6.036;2024-01-11T10:04:40;13.77;;;10.10;;
44762;SDS011;30483;49.576;6.036;2024-01-11T10:07:07;13.90;;;9.82;;
44762;SDS011;30483;49.576;6.036;2024-01-11T10:09:34;14.65;;;10.10;;
44762;SDS011;30483;49.576;6.036;2024-01-11T10:12:00;14.20;;;10.35;;
44762;SDS011;30483;49.576;6.036;2024-01-11T10:14:26;15.18;;;10.85;;
44762;SDS011;30483;49.576;6.036;2024-01-11T10:16:53;15.45;;;9.38;;
44762;SDS011;30483;49.576;6.036;2024-01-11T10:19:19;12.90;;;8.45;;
44762;SDS011;30483;49.576;6.036;2024-01-11T10:21:46;11.85;;;8.73;;
44762;SDS011;30483;49.576;6.036;2024-01-11T10:24:17;12.98;;;9.43;;
44762;SDS011;30483;49.576;6.036;2024-01-11T10:26:45;13.60;;;8.98;;
44762;SDS011;30483;49.576;6.036;2024-01-11T10:29:10;15.40;;;9.20;;
44762;SDS011;30483;49.576;6.036;2024-01-11T10:31:37;13.80;;;9.13;;
44762;SDS011;30483;49.576;6.036;2024-01-11T10:34:03;11.85;;;8.55;;
44762;SDS011;30483;49.576;6.036;2024-01-11T10:36:31;11.85;;;7.88;;
44762;SDS011;30483;49.576;6.036;2024-01-11T10:38:57;11.48;;;8.07;;
44762;SDS011;30483;49.576;6.036;2024-01-11T10:41:29;10.77;;;7.60;;
44762;SDS011;30483;49.576;6.036;2024-01-11T10:44:02;10.82;;;7.72;;
44762;SDS011;30483;49.576;6.036;2024-01-11T10:46:28;11.40;;;7.70;;
44762;SDS011;30483;49.576;6.036;2024-01-11T10:48:56;11.98;;;7.35;;
44762;SDS011;30483;49.576;6.036;2024-01-11T10:51:24;9.00;;;6.70;;
44762;SDS011;30483;49.576;6.036;2024-01-11T10:53:53;11.18;;;7.65;;
44762;SDS011;30483;49.576;6.036;2024-01-11T10:56:19;10.45;;;7.72;;
44762;SDS011;30483;49.576;6.036;2024-01-11T10:58:46;10.25;;;7.18;;
44762;SDS011;30483;49.576;6.036;2024-01-11T11:01:13;10.15;;;7.20;;
44762;SDS011;30483;49.576;6.036;2024-01-11T11:03:39;13.07;;;8.75;;
44762;SDS011;30483;49.576;6.036;2024-01-11T11:06:07;16.17;;;11.10;;
44762;SDS011;30483;49.576;6.036;2024-01-11T11:08:36;14.55;;;10.75;;
44762;SDS011;30483;49.576;6.036;2024-01-11T11:11:03;15.07;;;10.40;;
44762;SDS011;30483;49.576;6.036;2024-01-11T11:13:31;12.32;;;9.40;;
44762;SDS011;30483;49.576;6.036;2024-01-11T11:15:57;13.02;;;8.57;;
44762;SDS011;30483;49.576;6.036;2024-01-11T11:18:24;12.02;;;8.57;;
44762;SDS011;30483;49.576;6.036;2024-01-11T11:20:50;11.75;;;8.68;;
44762;SDS011;30483;49.576;6.036;2024-01-11T11:23:17;13.25;;;8.45;;
44762;SDS011;30483;49.576;6.036;2024-01-11T11:25:47;12.50;;;8.82;;
44762;SDS011;30483;49.576;6.036;2024-01-11T11:28:14;10.57;;;7.90;;
44762;SDS011;30483;49.576;6.036;2024-01-11T11:30:42;14.40;;;8.73;;
44762;SDS011;30483;49.576;6.036;2024-01-11T11:33:22;11.60;;;7.90;;
44762;SDS011;30483;49.576;6.036;2024-01-11T11:38:25;12.00;;;8.13;;
44762;SDS011;30483;49.576;6.036;2024-01-11T11:40:53;10.32;;;7.53;;
44762;SDS011;30483;49.576;6.036;2024-01-11T11:43:21;10.30;;;7.57;;
44762;SDS011;30483;49.576;6.036;2024-01-11T11:45:47;11.73;;;7.80;;
44762;SDS011;30483;49.576;6.036;2024-01-11T11:51:06;10.32;;;7.28;;
44762;SDS011;30483;49.576;6.036;2024-01-11T11:53:35;10.82;;;7.90;;
44762;SDS011;30483;49.576;6.036;2024-01-11T11:56:02;10.43;;;7.30;;
44762;SDS011;30483;49.576;6.036;2024-01-11T11:58:28;9.95;;;7.20;;
44762;SDS011;30483;49.576;6.036;2024-01-11T12:00:55;9.32;;;6.68;;
44762;SDS011;30483;49.576;6.036;2024-01-11T12:03:28;9.75;;;7.38;;
44762;SDS011;30483;49.576;6.036;2024-01-11T12:05:58;9.27;;;6.95;;
44762;SDS011;30483;49.576;6.036;2024-01-11T12:08:25;9.10;;;6.72;;
44762;SDS011;30483;49.576;6.036;2024-01-11T12:10:52;9.93;;;6.80;;
44762;SDS011;30483;49.576;6.036;2024-01-11T12:13:18;9.63;;;6.90;;
44762;SDS011;30483;49.576;6.036;2024-01-11T12:15:45;9.30;;;6.80;;
44762;SDS011;30483;49.576;6.036;2024-01-11T12:18:11;9.25;;;6.90;;
44762;SDS011;30483;49.576;6.036;2024-01-11T12:20:36;9.15;;;6.82;;
44762;SDS011;30483;49.576;6.036;2024-01-11T12:23:02;10.82;;;7.35;;
44762;SDS011;30483;49.576;6.036;2024-01-11T12:25:28;10.23;;;6.90;;
44762;SDS011;30483;49.576;6.036;2024-01-11T12:27:54;9.90;;;6.78;;
44762;SDS011;30483;49.576;6.036;2024-01-11T12:30:23;9.00;;;6.57;;
44762;SDS011;30483;49.576;6.036;2024-01-11T12:32:50;9.25;;;6.63;;
44762;SDS011;30483;49.576;6.036;2024-01-11T12:35:16;8.88;;;6.50;;
44762;SDS011;30483;49.576;6.036;2024-01-11T12:37:52;10.85;;;6.75;;
44762;SDS011;30483;49.576;6.036;2024-01-11T12:40:23;8.80;;;6.25;;
44762;SDS011;30483;49.576;6.036;2024-01-11T12:42:48;8.75;;;6.50;;
44762;SDS011;30483;49.576;6.036;2024-01-11T12:45:15;8.65;;;6.55;;
44762;SDS011;30483;49.576;6.036;2024-01-11T12:47:42;9.30;;;6.40;;
44762;SDS011;30483;49.576;6.036;2024-01-11T12:50:08;8.52;;;6.28;;
44762;SDS011;30483;49.576;6.036;2024-01-11T12:52:34;9.27;;;6.15;;
44762;SDS011;30483;49.576;6.036;2024-01-11T12:55:00;8.82;;;6.43;;
44762;SDS011;30483;49.576;6.036;2024-01-11T12:57:25;8.50;;;6.53;;
44762;SDS011;30483;49.576;6.036;2024-01-11T12:59:51;8.80;;;5.97;;
44762;SDS011;30483;49.576;6.036;2024-01-11T13:02:17;7.90;;;5.93;;
44762;SDS011;30483;49.576;6.036;2024-01-11T13:04:44;7.50;;;5.90;;
44762;SDS011;30483;49.576;6.036;2024-01-11T13:07:13;8.05;;;5.95;;
44762;SDS011;30483;49.576;6.036;2024-01-11T13:09:40;8.70;;;6.00;;
44762;SDS011;30483;49.576;6.036;2024-01-11T13:12:06;8.20;;;6.10;;
44762;SDS011;30483;49.576;6.036;2024-01-11T13:14:32;8.43;;;6.30;;
44762;SDS011;30483;49.576;6.036;2024-01-11T13:16:58;8.40;;;6.20;;
44762;SDS011;30483;49.576;6.036;2024-01-11T13:19:24;8.20;;;6.10;;
44762;SDS011;30483;49.576;6.036;2024-01-11T13:21:49;9.88;;;6.78;;
44762;SDS011;30483;49.576;6.036;2024-01-11T13:24:15;7.30;;;5.90;;
44762;SDS011;30483;49.576;6.036;2024-01-11T13:26:41;7.47;;;5.80;;
44762;SDS011;30483;49.576;6.036;2024-01-11T13:29:06;8.95;;;6.45;;
44762;SDS011;30483;49.576;6.036;2024-01-11T13:31:32;8.73;;;5.90;;
44762;SDS011;30483;49.576;6.036;2024-01-11T13:33:58;8.88;;;6.25;;
44762;SDS011;30483;49.576;6.036;2024-01-11T13:36:24;8.23;;;5.80;;
44762;SDS011;30483;49.576;6.036;2024-01-11T13:38:50;7.75;;;5.68;;
44762;SDS011;30483;49.576;6.036;2024-01-11T13:41:16;7.30;;;5.68;;
44762;SDS011;30483;49.576;6.036;2024-01-11T13:43:45;8.35;;;5.82;;
44762;SDS011;30483;49.576;6.036;2024-01-11T13:46:11;8.00;;;5.80;;
44762;SDS011;30483;49.576;6.036;2024-01-11T13:48:39;7.53;;;5.97;;
44762;SDS011;30483;49.576;6.036;2024-01-11T13:51:04;7.82;;;6.25;;
44762;SDS011;30483;49.576;6.036;2024-01-11T13:53:30;8.00;;;5.57;;
44762;SDS011;30483;49.576;6.036;2024-01-11T13:55:56;7.80;;;5.88;;
44762;SDS011;30483;49.576;6.036;2024-01-11T13:58:22;8.07;;;5.45;;
44762;SDS011;30483;49.576;6.036;2024-01-11T14:00:48;8.02;;;6.22;;
44762;SDS011;30483;49.576;6.036;2024-01-11T14:03:13;9.10;;;5.68;;
44762;SDS011;30483;49.576;6.036;2024-01-11T14:05:39;8.55;;;5.55;;
44762;SDS011;30483;49.576;6.036;2024-01-11T14:08:04;7.43;;;5.40;;
44762;SDS011;30483;49.576;6.036;2024-01-11T14:10:32;7.88;;;5.70;;
44762;SDS011;30483;49.576;6.036;2024-01-11T14:13:01;8.43;;;6.03;;
44762;SDS011;30483;49.576;6.036;2024-01-11T14:15:27;9.10;;;5.93;;
44762;SDS011;30483;49.576;6.036;2024-01-11T14:17:53;8.40;;;5.78;;
44762;SDS011;30483;49.576;6.036;2024-01-11T14:20:19;8.02;;;5.95;;
44762;SDS011;30483;49.576;6.036;2024-01-11T14:22:46;7.50;;;5.68;;
44762;SDS011;30483;49.576;6.036;2024-01-11T14:25:14;7.88;;;5.78;;
44762;SDS011;30483;49.576;6.036;2024-01-11T14:27:40;7.80;;;5.70;;
44762;SDS011;30483;49.576;6.036;2024-01-11T14:30:06;8.68;;;5.63;;
44762;SDS011;30483;49.576;6.036;2024-01-11T14:32:33;6.88;;;5.35;;
44762;SDS011;30483;49.576;6.036;2024-01-11T14:34:58;8.20;;;5.70;;
44762;SDS011;30483;49.576;6.036;2024-01-11T14:37:29;6.95;;;5.40;;
44762;SDS011;30483;49.576;6.036;2024-01-11T14:39:58;5.93;;;5.00;;
44762;SDS011;30483;49.576;6.036;2024-01-11T14:42:24;6.90;;;5.20;;
44762;SDS011;30483;49.576;6.036;2024-01-11T14:44:50;7.72;;;5.78;;
44762;SDS011;30483;49.576;6.036;2024-01-11T14:47:16;7.13;;;5.43;;
44762;SDS011;30483;49.576;6.036;2024-01-11T14:49:42;6.97;;;5.63;;
44762;SDS011;30483;49.576;6.036;2024-01-11T14:52:07;7.50;;;5.60;;
44762;SDS011;30483;49.576;6.036;2024-01-11T14:54:33;7.35;;;5.25;;
44762;SDS011;30483;49.576;6.036;2024-01-11T14:56:58;6.95;;;4.90;;
44762;SDS011;30483;49.576;6.036;2024-01-11T14:59:24;7.50;;;5.35;;
44762;SDS011;30483;49.576;6.036;2024-01-11T15:01:50;7.45;;;5.30;;
44762;SDS011;30483;49.576;6.036;2024-01-11T15:04:15;7.95;;;5.47;;
44762;SDS011;30483;49.576;6.036;2024-01-11T15:06:41;7.07;;;5.22;;
44762;SDS011;30483;49.576;6.036;2024-01-11T15:09:07;6.50;;;5.13;;
44762;SDS011;30483;49.576;6.036;2024-01-11T15:11:37;6.15;;;4.85;;
44762;SDS011;30483;49.576;6.036;2024-01-11T15:14:04;7.50;;;5.40;;
44762;SDS011;30483;49.576;6.036;2024-01-11T15:16:31;7.05;;;5.45;;
44762;SDS011;30483;49.576;6.036;2024-01-11T15:18:56;6.13;;;4.80;;
44762;SDS011;30483;49.576;6.036;2024-01-11T15:21:22;7.13;;;5.32;;
44762;SDS011;30483;49.576;6.036;2024-01-11T15:23:47;6.65;;;5.13;;
44762;SDS011;30483;49.576;6.036;2024-01-11T15:26:13;6.85;;;5.45;;
44762;SDS011;30483;49.576;6.036;2024-01-11T15:28:38;6.50;;;5.38;;
44762;SDS011;30483;49.576;6.036;2024-01-11T15:31:04;7.22;;;5.05;;
44762;SDS011;30483;49.576;6.036;2024-01-11T15:33:30;6.88;;;5.15;;
44762;SDS011;30483;49.576;6.036;2024-01-11T15:35:56;6.28;;;4.90;;
44762;SDS011;30483;49.576;6.036;2024-01-11T15:38:21;6.68;;;5.03;;
44762;SDS011;30483;49.576;6.036;2024-01-11T15:40:47;5.97;;;4.85;;
44762;SDS011;30483;49.576;6.036;2024-01-11T15:43:13;5.57;;;4.53;;
44762;SDS011;30483;49.576;6.036;2024-01-11T15:45:38;5.82;;;4.95;;
44762;SDS011;30483;49.576;6.036;2024-01-11T15:48:04;6.63;;;5.05;;
44762;SDS011;30483;49.576;6.036;2024-01-11T15:50:30;6.53;;;5.10;;
44762;SDS011;30483;49.576;6.036;2024-01-11T15:52:56;6.43;;;4.80;;
44762;SDS011;30483;49.576;6.036;2024-01-11T15:55:21;7.32;;;5.10;;
44762;SDS011;30483;49.576;6.036;2024-01-11T15:57:47;7.30;;;5.18;;
44762;SDS011;30483;49.576;6.036;2024-01-11T16:00:13;5.80;;;4.55;;
44762;SDS011;30483;49.576;6.036;2024-01-11T16:02:39;9.52;;;6.05;;
44762;SDS011;30483;49.576;6.036;2024-01-11T16:05:06;10.70;;;6.43;;
44762;SDS011;30483;49.576;6.036;2024-01-11T16:07:34;10.00;;;6.35;;
44762;SDS011;30483;49.576;6.036;2024-01-11T16:09:59;9.07;;;5.63;;
44762;SDS011;30483;49.576;6.036;2024-01-11T16:12:25;7.53;;;5.70;;
44762;SDS011;30483;49.576;6.036;2024-01-11T16:14:51;7.68;;;5.65;;
44762;SDS011;30483;49.576;6.036;2024-01-11T16:17:18;8.35;;;5.97;;
44762;SDS011;30483;49.576;6.036;2024-01-11T16:19:44;7.22;;;5.72;;
44762;SDS011;30483;49.576;6.036;2024-01-11T16:22:10;7.15;;;5.43;;
44762;SDS011;30483;49.576;6.036;2024-01-11T16:24:35;7.35;;;5.35;;
44762;SDS011;30483;49.576;6.036;2024-01-11T16:27:01;6.70;;;4.95;;
44762;SDS011;30483;49.576;6.036;2024-01-11T16:29:29;5.95;;;4.97;;
44762;SDS011;30483;49.576;6.036;2024-01-11T16:31:55;6.80;;;4.85;;
44762;SDS011;30483;49.576;6.036;2024-01-11T16:34:20;7.00;;;4.93;;
44762;SDS011;30483;49.576;6.036;2024-01-11T16:36:46;7.68;;;4.68;;
44762;SDS011;30483;49.576;6.036;2024-01-11T16:39:12;7.00;;;5.07;;
44762;SDS011;30483;49.576;6.036;2024-01-11T16:41:38;6.85;;;5.10;;
44762;SDS011;30483;49.576;6.036;2024-01-11T16:44:05;6.22;;;5.07;;
44762;SDS011;30483;49.576;6.036;2024-01-11T16:46:33;5.95;;;4.65;;
44762;SDS011;30483;49.576;6.036;2024-01-11T16:48:58;6.60;;;4.97;;
44762;SDS011;30483;49.576;6.036;2024-01-11T16:51:26;6.15;;;5.10;;
44762;SDS011;30483;49.576;6.036;2024-01-11T16:53:53;7.22;;;4.95;;
44762;SDS011;30483;49.576;6.036;2024-01-11T16:56:19;7.63;;;5.15;;
44762;SDS011;30483;49.576;6.036;2024-01-11T16:58:44;11.40;;;6.38;;
44762;SDS011;30483;49.576;6.036;2024-01-11T17:01:10;9.80;;;6.50;;
44762;SDS011;30483;49.576;6.036;2024-01-11T17:03:36;9.13;;;5.80;;
44762;SDS011;30483;49.576;6.036;2024-01-11T17:06:01;8.38;;;5.68;;
44762;SDS011;30483;49.576;6.036;2024-01-11T17:08:27;8.48;;;6.07;;
44762;SDS011;30483;49.576;6.036;2024-01-11T17:10:54;7.40;;;5.15;;
44762;SDS011;30483;49.576;6.036;2024-01-11T17:13:19;7.68;;;5.43;;
44762;SDS011;30483;49.576;6.036;2024-01-11T17:15:46;6.82;;;5.18;;
44762;SDS011;30483;49.576;6.036;2024-01-11T17:18:12;8.32;;;5.32;;
44762;SDS011;30483;49.576;6.036;2024-01-11T17:20:38;6.93;;;5.38;;
44762;SDS011;30483;49.576;6.036;2024-01-11T17:23:03;11.00;;;5.43;;
44762;SDS011;30483;49.576;6.036;2024-01-11T17:25:29;6.88;;;4.95;;
44762;SDS011;30483;49.576;6.036;2024-01-11T17:27:55;9.57;;;5.32;;
44762;SDS011;30483;49.576;6.036;2024-01-11T17:30:20;7.72;;;5.22;;
44762;SDS011;30483;49.576;6.036;2024-01-11T17:32:46;7.63;;;5.35;;
44762;SDS011;30483;49.576;6.036;2024-01-11T17:35:11;6.38;;;5.00;;
44762;SDS011;30483;49.576;6.036;2024-01-11T17:37:37;6.95;;;5.22;;
44762;SDS011;30483;49.576;6.036;2024-01-11T17:40:06;6.93;;;5.20;;
44762;SDS011;30483;49.576;6.036;2024-01-11T17:42:32;6.20;;;4.45;;
44762;SDS011;30483;49.576;6.036;2024-01-11T17:44:58;7.00;;;5.00;;
44762;SDS011;30483;49.576;6.036;2024-01-11T17:47:24;6.55;;;4.68;;
44762;SDS011;30483;49.576;6.036;2024-01-11T17:49:49;6.57;;;4.80;;
44762;SDS011;30483;49.576;6.036;2024-01-11T17:52:15;6.45;;;4.93;;
44762;SDS011;30483;49.576;6.036;2024-01-11T17:54:41;7.57;;;4.88;;
44762;SDS011;30483;49.576;6.036;2024-01-11T17:57:07;5.93;;;4.32;;
44762;SDS011;30483;49.576;6.036;2024-01-11T17:59:33;6.53;;;4.82;;
44762;SDS011;30483;49.576;6.036;2024-01-11T18:01:58;6.00;;;4.50;;
44762;SDS011;30483;49.576;6.036;2024-01-11T18:04:24;6.32;;;4.82;;
44762;SDS011;30483;49.576;6.036;2024-01-11T18:06:50;6.93;;;4.85;;
44762;SDS011;30483;49.576;6.036;2024-01-11T18:09:17;6.28;;;4.50;;
44762;SDS011;30483;49.576;6.036;2024-01-11T18:11:42;8.63;;;4.78;;
44762;SDS011;30483;49.576;6.036;2024-01-11T18:14:12;6.20;;;4.50;;
44762;SDS011;30483;49.576;6.036;2024-01-11T18:16:38;6.15;;;4.50;;
44762;SDS011;30483;49.576;6.036;2024-01-11T18:19:04;5.82;;;4.47;;
44762;SDS011;30483;49.576;6.036;2024-01-11T18:21:33;6.57;;;4.45;;
44762;SDS011;30483;49.576;6.036;2024-01-11T18:23:59;6.07;;;4.25;;
44762;SDS011;30483;49.576;6.036;2024-01-11T18:26:24;5.25;;;4.20;;
44762;SDS011;30483;49.576;6.036;2024-01-11T18:28:51;5.65;;;4.45;;
44762;SDS011;30483;49.576;6.036;2024-01-11T18:31:18;5.63;;;4.22;;
44762;SDS011;30483;49.576;6.036;2024-01-11T18:33:44;6.18;;;4.25;;
44762;SDS011;30483;49.576;6.036;2024-01-11T18:36:10;6.25;;;4.07;;
44762;SDS011;30483;49.576;6.036;2024-01-11T18:38:37;5.22;;;4.20;;
44762;SDS011;30483;49.576;6.036;2024-01-11T18:41:03;5.32;;;4.35;;